PHKO METAR and TAF weather

Enter ICAO airport designator
Station Type Date Time Source
PHKO METAR 2019/10/22 15:53 UTC NOAA

PHKO 221553Z 12003KT 10SM SCT060 24/20 A2994 RMK AO2 SLP137 T02440200


Station Type Date Time Source
PHKO Decoded METAR 2019/10/22 15:53 UTC NOAA

KONA INTERNATIONAL AIRPORT, HI, United States (PHKO) 19-44N 156-03W 27M
Oct 22, 2019 - 11:53 AM EDT / 2019.10.22 1553 UTC
Wind: from the ESE (120 degrees) at 3 MPH (3 KT):0
Visibility: 10 mile(s):0
Sky conditions: partly cloudy
Temperature: 75.9 F (24.4 C)
Dew Point: 68.0 F (20.0 C)
Relative Humidity: 76%
Pressure (altimeter): 29.94 in. Hg (1013 hPa)
ob: PHKO 221553Z 12003KT 10SM SCT060 24/20 A2994 RMK AO2 SLP137 T02440200
cycle: 16

Station Type Date Time Source
PHKO TAF 2019/10/22 12:22 UTC NOAA

TAF PHKO 221120Z 2212/2312 VRB05KT P6SM FEW045
FM222000 22009KT P6SM VCSH SCT025 SCT050
FM230500 VRB06KT P6SM SCT030 SCT060

Example: see airport list